Time;durP1;ratioP1;P1;durP2;ratioP2;P2;SDS_P1;SDS_P2;PMS_P1;PMS_P2;Temp;Humidity;BMP_temperature;BMP_pressure;BME280_temperature;BME280_humidity;BME280_pressure;Samples;Min_cycle;Max_cycle;Signal;HPM_P1;HPM_P2
2023/12/10 00:02:02;;;;;;;36.83;8.52;;;;;;;8.14;100.00;99809.53;5048340;28;20047;-81
2023/12/10 00:04:27;;;;;;;34.60;7.28;;;;;;;8.12;100.00;99816.66;5048878;28;20029;-82
2023/12/10 00:06:53;;;;;;;34.55;7.57;;;;;;;8.15;100.00;99826.06;5060818;28;20044;-82
2023/12/10 00:09:21;;;;;;;40.25;8.65;;;;;;;8.16;100.00;99812.84;5066448;28;20400;-81
2023/12/10 00:11:46;;;;;;;41.65;8.23;;;;;;;8.17;100.00;99818.91;5065026;28;20036;-82
2023/12/10 00:14:12;;;;;;;37.60;8.40;;;;;;;8.18;100.00;99815.34;5063772;28;20465;-82
2023/12/10 00:16:37;;;;;;;36.10;7.85;;;;;;;8.18;100.00;99826.66;5065119;28;20029;-81
2023/12/10 00:19:03;;;;;;;32.40;7.78;;;;;;;8.24;100.00;99819.25;5069446;28;20081;-81
2023/12/10 00:21:28;;;;;;;30.15;7.35;;;;;;;8.27;100.00;99825.06;5066764;28;20101;-81
2023/12/10 00:23:54;;;;;;;33.30;7.97;;;;;;;8.30;100.00;99831.84;5068905;28;20112;-81
2023/12/10 00:26:19;;;;;;;33.97;7.75;;;;;;;8.31;100.00;99836.13;5069806;28;20024;-82
2023/12/10 00:28:44;;;;;;;34.25;8.05;;;;;;;8.37;100.00;99827.81;5067847;28;20029;-81
2023/12/10 00:31:10;;;;;;;30.58;7.40;;;;;;;8.35;100.00;99842.81;5063179;28;20033;-81
2023/12/10 00:33:35;;;;;;;30.65;6.97;;;;;;;8.31;100.00;99831.72;5064689;28;20028;-81
2023/12/10 00:36:01;;;;;;;32.85;8.02;;;;;;;8.34;100.00;99846.41;5065932;28;20025;-81
2023/12/10 00:38:26;;;;;;;30.95;6.63;;;;;;;8.33;100.00;99840.34;5064417;28;20484;-81
2023/12/10 00:40:52;;;;;;;30.35;7.28;;;;;;;8.32;100.00;99845.66;5071342;28;20032;-81
2023/12/10 00:43:17;;;;;;;34.10;7.53;;;;;;;8.29;100.00;99843.28;5050326;28;20140;-81
2023/12/10 00:45:43;;;;;;;26.27;6.38;;;;;;;8.27;100.00;99845.22;5052659;28;20047;-81
2023/12/10 00:48:10;;;;;;;31.90;7.18;;;;;;;8.24;100.00;99848.06;5057828;28;20020;-81
2023/12/10 00:50:35;;;;;;;31.60;6.90;;;;;;;8.26;100.00;99848.78;5057686;28;20240;-82
2023/12/10 00:53:04;;;;;;;31.75;7.10;;;;;;;8.29;100.00;99848.53;5067840;28;20029;-81
2023/12/10 00:55:29;;;;;;;34.38;7.28;;;;;;;8.25;100.00;99868.09;5050496;28;20477;-81
2023/12/10 00:57:55;;;;;;;30.55;7.20;;;;;;;8.24;100.00;99876.91;5053325;28;20029;-82
2023/12/10 01:00:21;;;;;;;29.02;7.03;;;;;;;8.25;100.00;99879.41;5052608;28;20025;-82
2023/12/10 01:02:47;;;;;;;31.23;7.00;;;;;;;8.23;100.00;99870.00;5052833;28;20396;-81
2023/12/10 01:05:13;;;;;;;35.20;7.03;;;;;;;8.22;100.00;99874.41;5068826;28;20028;-81
2023/12/10 01:07:38;;;;;;;32.78;6.40;;;;;;;8.20;100.00;99875.47;5070614;28;20028;-81
2023/12/10 01:10:05;;;;;;;25.63;6.68;;;;;;;8.16;100.00;99875.72;5060782;28;20036;-80
2023/12/10 01:12:35;;;;;;;28.95;7.10;;;;;;;8.14;100.00;99879.44;5068043;28;20032;-79
2023/12/10 01:15:01;;;;;;;27.02;6.50;;;;;;;8.10;100.00;99876.22;5069211;28;20102;-79
2023/12/10 01:17:26;;;;;;;26.17;6.35;;;;;;;8.09;100.00;99885.03;5068589;28;20024;-79
2023/12/10 01:19:52;;;;;;;30.65;6.80;;;;;;;8.06;100.00;99869.56;5071128;28;20036;-79
2023/12/10 01:22:17;;;;;;;31.27;7.30;;;;;;;8.04;100.00;99881.94;5065192;28;20907;-79
2023/12/10 01:24:45;;;;;;;35.83;7.95;;;;;;;8.04;100.00;99887.19;5057808;28;20032;-80
2023/12/10 01:27:11;;;;;;;33.55;7.00;;;;;;;8.03;100.00;99885.53;5062444;28;20032;-80
2023/12/10 01:29:36;;;;;;;32.28;6.82;;;;;;;8.03;100.00;99890.75;5068913;28;20562;-80
2023/12/10 01:32:02;;;;;;;32.70;7.10;;;;;;;8.04;100.00;99887.19;5067811;28;20047;-80
2023/12/10 01:34:27;;;;;;;30.35;6.90;;;;;;;8.06;100.00;99895.75;5049707;28;20075;-79
2023/12/10 01:36:53;;;;;;;32.58;6.53;;;;;;;8.08;100.00;99904.34;5054197;28;20128;-80
2023/12/10 01:39:19;;;;;;;31.52;6.80;;;;;;;8.08;100.00;99904.34;5069919;28;20031;-80
2023/12/10 01:41:45;;;;;;;27.33;6.55;;;;;;;8.07;100.00;99914.94;5063387;28;20027;-79
2023/12/10 01:44:10;;;;;;;29.35;7.40;;;;;;;8.04;100.00;99913.38;5050996;28;20021;-80
2023/12/10 01:46:36;;;;;;;28.63;6.13;;;;;;;8.02;100.00;99920.53;5049273;28;20508;-80
2023/12/10 01:49:05;;;;;;;31.45;6.53;;;;;;;7.95;100.00;99929.78;5065895;28;20029;-79
2023/12/10 01:51:30;;;;;;;25.33;5.32;;;;;;;7.95;100.00;99924.56;5050055;28;20052;-80
2023/12/10 01:53:56;;;;;;;28.27;5.95;;;;;;;7.92;100.00;99934.44;5058563;28;20523;-79
2023/12/10 01:56:21;;;;;;;28.60;6.00;;;;;;;7.89;100.00;99929.44;5071050;28;20048;-79
2023/12/10 01:58:47;;;;;;;23.88;5.57;;;;;;;7.83;100.00;99938.59;5063485;28;20048;-80
2023/12/10 02:01:13;;;;;;;29.90;6.03;;;;;;;7.79;100.00;99934.56;5053969;28;20036;-79
2023/12/10 02:03:40;;;;;;;21.73;5.40;;;;;;;7.78;100.00;99935.50;5051607;28;20078;-79
2023/12/10 02:06:06;;;;;;;25.40;5.78;;;;;;;7.71;100.00;99935.16;5057205;28;20024;-80
2023/12/10 02:08:32;;;;;;;23.45;5.68;;;;;;;7.67;100.00;99946.81;5069353;28;20059;-80
2023/12/10 02:10:59;;;;;;;27.85;5.78;;;;;;;7.65;100.00;99945.28;5060074;28;20056;-80
2023/12/10 02:13:25;;;;;;;25.33;5.40;;;;;;;7.61;100.00;99941.22;5063203;28;20021;-81
2023/12/10 02:15:51;;;;;;;27.95;5.85;;;;;;;7.59;100.00;99943.09;5070687;28;20020;-80
2023/12/10 02:18:19;;;;;;;24.27;5.47;;;;;;;7.55;100.00;99940.72;5059301;28;20108;-80
2023/12/10 02:20:45;;;;;;;24.50;5.35;;;;;;;7.50;100.00;99935.00;5067882;28;20098;-80
2023/12/10 02:23:32;;;;;;;29.52;6.07;;;;;;;7.51;100.00;99939.28;5068699;28;20032;-80
2023/12/10 02:25:58;;;;;;;24.98;5.43;;;;;;;7.47;100.00;99955.34;5067168;28;20028;-79
2023/12/10 02:28:24;;;;;;;24.27;5.43;;;;;;;7.46;100.00;99941.41;5069596;28;20484;-79
2023/12/10 02:30:49;;;;;;;26.85;6.65;;;;;;;7.50;100.00;99944.63;5068501;28;20032;-80
2023/12/10 02:33:18;;;;;;;26.25;5.38;;;;;;;7.49;100.00;99954.25;5069224;28;20387;-78
2023/12/10 02:35:43;;;;;;;22.38;5.50;;;;;;;7.50;100.00;99953.31;5062252;28;20115;-79
2023/12/10 02:38:09;;;;;;;24.10;5.70;;;;;;;7.51;100.00;99962.84;5066392;28;20100;-78
2023/12/10 02:40:34;;;;;;;23.10;5.47;;;;;;;7.47;100.00;99961.41;5055014;28;20048;-80
2023/12/10 02:43:00;;;;;;;26.48;6.30;;;;;;;7.49;100.00;99964.72;5066765;28;20031;-78
2023/12/10 02:45:26;;;;;;;24.02;5.90;;;;;;;7.49;100.00;99958.66;5066426;28;20043;-79
2023/12/10 02:47:51;;;;;;;24.52;6.25;;;;;;;7.48;100.00;99962.22;5066969;28;20028;-79
2023/12/10 02:50:16;;;;;;;24.88;5.70;;;;;;;7.48;100.00;99964.84;5065417;28;20024;-79
2023/12/10 02:52:42;;;;;;;27.58;6.38;;;;;;;7.50;100.00;99976.88;5066669;28;20063;-78
2023/12/10 02:55:10;;;;;;;25.63;5.38;;;;;;;7.52;100.00;99964.50;5068144;28;20024;-79
2023/12/10 02:57:36;;;;;;;21.95;5.40;;;;;;;7.54;100.00;99973.06;5064496;28;20064;-79
2023/12/10 03:00:02;;;;;;;23.50;5.75;;;;;;;7.60;100.00;99965.69;5066926;28;20032;-79
2023/12/10 03:02:28;;;;;;;25.90;6.15;;;;;;;7.57;100.00;99979.03;5065467;28;20028;-79
2023/12/10 03:04:53;;;;;;;24.95;6.10;;;;;;;7.54;100.00;99977.47;5067341;28;20034;-79
2023/12/10 03:07:18;;;;;;;27.17;6.32;;;;;;;7.54;100.00;99980.91;5066859;28;20032;-79
2023/12/10 03:09:45;;;;;;;24.85;5.63;;;;;;;7.60;100.00;99982.25;5068374;28;20385;-79
2023/12/10 03:12:10;;;;;;;20.38;5.65;;;;;;;7.60;100.00;99986.66;5064579;28;20027;-78
2023/12/10 03:14:36;;;;;;;20.42;5.43;;;;;;;7.63;100.00;99997.75;5056960;28;20477;-79
2023/12/10 03:17:01;;;;;;;25.25;5.65;;;;;;;7.68;100.00;99995.63;5067400;28;20504;-79
2023/12/10 03:19:26;;;;;;;24.83;5.93;;;;;;;7.69;100.00;99999.06;5067486;28;20047;-79
2023/12/10 03:21:52;;;;;;;22.05;4.97;;;;;;;7.73;100.00;99995.25;5066990;28;20021;-79
2023/12/10 03:24:17;;;;;;;21.67;4.63;;;;;;;7.74;100.00;100007.41;5068174;28;20078;-79
2023/12/10 03:26:43;;;;;;;27.30;5.80;;;;;;;7.74;100.00;100012.63;5068302;28;20016;-80
2023/12/10 03:29:08;;;;;;;23.50;5.20;;;;;;;7.75;100.00;100016.94;5082977;28;20025;-79
2023/12/10 03:31:33;;;;;;;26.55;5.47;;;;;;;7.77;100.00;100021.09;5063376;28;20135;-79
2023/12/10 03:33:59;;;;;;;28.58;5.97;;;;;;;7.79;100.00;100018.34;5067615;28;20772;-79
2023/12/10 03:36:24;;;;;;;21.42;5.22;;;;;;;7.79;100.00;100028.84;5067488;28;20024;-78
2023/12/10 03:38:50;;;;;;;26.50;5.60;;;;;;;7.81;100.00;100033.00;5058412;28;20108;-79
2023/12/10 03:41:18;;;;;;;22.13;5.25;;;;;;;7.80;100.00;100043.59;5053710;28;20132;-79
2023/12/10 03:43:44;;;;;;;24.40;5.43;;;;;;;7.85;100.00;100029.19;5048466;28;20025;-79
2023/12/10 03:46:09;;;;;;;23.02;5.78;;;;;;;7.87;100.00;100021.22;5049703;28;20419;-80
2023/12/10 03:48:34;;;;;;;22.75;5.35;;;;;;;7.90;100.00;100015.75;5068759;28;20036;-79
2023/12/10 03:51:00;;;;;;;26.45;5.93;;;;;;;7.91;100.00;100025.28;5060689;28;20021;-78
2023/12/10 03:53:25;;;;;;;25.17;5.75;;;;;;;7.91;100.00;100042.78;5064752;28;20480;-79
2023/12/10 03:55:51;;;;;;;19.80;4.78;;;;;;;7.94;100.00;100038.13;5066960;28;20028;-80
2023/12/10 03:58:16;;;;;;;20.15;5.10;;;;;;;7.95;100.00;100034.56;5064539;28;20028;-80
2023/12/10 04:00:41;;;;;;;25.88;5.65;;;;;;;7.97;100.00;100042.31;5077767;28;20025;-80
2023/12/10 04:03:07;;;;;;;26.15;5.05;;;;;;;8.03;100.00;100052.34;5064264;28;20565;-80
2023/12/10 04:05:32;;;;;;;24.15;5.57;;;;;;;8.04;100.00;100046.16;5064918;28;20036;-81
2023/12/10 04:07:58;;;;;;;21.73;5.10;;;;;;;8.05;100.00;100046.03;5066814;28;20028;-80
2023/12/10 04:10:23;;;;;;;24.58;5.43;;;;;;;8.06;100.00;100052.94;5061670;28;20060;-80
2023/12/10 04:12:49;;;;;;;21.35;4.80;;;;;;;8.11;100.00;100055.22;5064322;28;20035;-80
2023/12/10 04:15:14;;;;;;;21.70;5.32;;;;;;;8.09;100.00;100047.47;5067441;28;20383;-80
2023/12/10 04:17:39;;;;;;;24.35;5.22;;;;;;;8.07;100.00;100059.84;5065721;28;20037;-80
2023/12/10 04:20:06;;;;;;;24.83;5.43;;;;;;;8.07;100.00;100069.50;5067101;28;20028;-80
2023/12/10 04:22:32;;;;;;;25.02;5.53;;;;;;;8.09;100.00;100062.34;5064394;28;20025;-80
2023/12/10 04:25:00;;;;;;;21.08;5.47;;;;;;;8.13;99.43;100046.28;5052870;28;20028;-80
2023/12/10 04:27:25;;;;;;;24.77;5.35;;;;;;;8.15;100.00;100061.88;5063210;28;20075;-81
2023/12/10 04:29:51;;;;;;;22.65;5.97;;;;;;;8.16;100.00;100080.09;5050138;28;20120;-81
2023/12/10 04:32:17;;;;;;;27.58;5.30;;;;;;;8.17;99.69;100075.69;5056516;28;20070;-81
2023/12/10 04:34:42;;;;;;;25.42;5.72;;;;;;;8.17;99.25;100097.50;5065166;28;20082;-81
2023/12/10 04:37:07;;;;;;;23.92;5.63;;;;;;;8.19;99.60;100105.22;5056321;28;20017;-80
2023/12/10 04:39:33;;;;;;;25.60;5.28;;;;;;;8.23;97.87;100111.06;5067091;28;20425;-79
2023/12/10 04:41:58;;;;;;;23.00;5.30;;;;;;;8.21;99.95;100115.59;5055376;28;20075;-80
2023/12/10 04:44:24;;;;;;;26.20;5.05;;;;;;;8.22;99.56;100114.66;5047924;28;20429;-80
2023/12/10 04:46:49;;;;;;;23.33;5.28;;;;;;;8.23;98.51;100118.94;5054633;28;20029;-81
2023/12/10 04:49:14;;;;;;;20.75;4.90;;;;;;;8.23;98.42;100106.66;5056091;28;20024;-81
2023/12/10 04:51:40;;;;;;;25.75;5.75;;;;;;;8.24;98.85;100118.81;5049262;28;20384;-81
2023/12/10 04:54:05;;;;;;;23.13;5.45;;;;;;;8.29;97.06;100126.31;5066665;28;20017;-79
2023/12/10 04:56:31;;;;;;;26.02;5.68;;;;;;;8.35;96.57;100136.38;5049090;28;20032;-81
2023/12/10 04:58:56;;;;;;;21.77;5.72;;;;;;;8.32;97.69;100136.56;5049538;28;20017;-81
2023/12/10 05:01:21;;;;;;;22.80;6.20;;;;;;;8.30;97.90;100143.72;5063461;28;20036;-82
2023/12/10 05:03:47;;;;;;;28.33;5.97;;;;;;;8.30;97.35;100143.72;5061830;28;20033;-81
2023/12/10 05:06:12;;;;;;;24.67;5.47;;;;;;;8.32;96.90;100160.16;5067894;28;20484;-81
2023/12/10 05:08:38;;;;;;;24.88;5.50;;;;;;;8.33;97.18;100169.69;5062424;28;20068;-81
2023/12/10 05:11:03;;;;;;;22.60;5.78;;;;;;;8.33;97.02;100161.84;5068305;28;20117;-81
2023/12/10 05:13:32;;;;;;;26.02;5.43;;;;;;;8.31;97.77;100176.84;5061807;28;20392;-81
2023/12/10 05:15:58;;;;;;;26.25;5.30;;;;;;;8.30;97.63;100177.78;5068414;28;20123;-81
2023/12/10 05:18:23;;;;;;;22.63;5.60;;;;;;;8.30;97.15;100180.41;5070173;28;20190;-82
2023/12/10 05:20:49;;;;;;;22.08;4.93;;;;;;;8.29;97.89;100178.75;5070979;28;20036;-81
2023/12/10 05:23:14;;;;;;;22.23;5.30;;;;;;;8.30;97.93;100185.66;5069899;28;20020;-81
2023/12/10 05:25:40;;;;;;;22.50;5.10;;;;;;;8.29;97.73;100190.06;5069650;28;20028;-81
2023/12/10 05:28:05;;;;;;;23.40;5.40;;;;;;;8.32;96.68;100189.00;5069579;28;20032;-82
2023/12/10 05:30:31;;;;;;;23.85;5.50;;;;;;;8.30;97.96;100198.75;5068796;28;20524;-81
2023/12/10 05:32:56;;;;;;;23.00;5.35;;;;;;;8.32;97.29;100199.47;5069164;28;20036;-81
2023/12/10 05:35:22;;;;;;;22.73;5.15;;;;;;;8.34;97.64;100208.94;5067411;28;20017;-82
2023/12/10 05:37:47;;;;;;;26.58;6.03;;;;;;;8.37;96.54;100224.41;5065129;28;20597;-81
2023/12/10 05:40:12;;;;;;;24.33;5.43;;;;;;;8.37;96.67;100234.06;5069961;28;20107;-81
2023/12/10 05:42:39;;;;;;;22.15;5.30;;;;;;;8.38;97.09;100214.78;5071256;28;20020;-80
2023/12/10 05:45:04;;;;;;;25.33;5.80;;;;;;;8.37;96.26;100226.22;5068522;28;20028;-81
2023/12/10 05:47:30;;;;;;;21.02;5.40;;;;;;;8.38;97.40;100230.50;5071633;28;20502;-82
2023/12/10 05:49:56;;;;;;;21.98;5.38;;;;;;;8.38;96.47;100236.56;5055145;28;20025;-81
2023/12/10 05:52:21;;;;;;;24.08;5.72;;;;;;;8.40;95.50;100232.06;5050572;28;20052;-81
2023/12/10 05:54:47;;;;;;;27.40;5.72;;;;;;;8.43;94.90;100244.97;5059916;28;20508;-80
2023/12/10 05:57:12;;;;;;;24.73;5.43;;;;;;;8.49;93.99;100254.16;5062770;28;20029;-83
2023/12/10 05:59:38;;;;;;;26.67;5.78;;;;;;;8.45;96.18;100242.22;5066497;28;20024;-81
2023/12/10 06:02:03;;;;;;;25.10;6.05;;;;;;;8.45;95.01;100260.56;5051831;28;20082;-81
2023/12/10 06:04:29;;;;;;;21.88;5.45;;;;;;;8.46;94.68;100281.44;5066321;28;20021;-80
2023/12/10 06:06:54;;;;;;;25.98;5.43;;;;;;;8.43;96.58;100265.09;5052093;28;20110;-81
2023/12/10 06:09:19;;;;;;;23.13;5.65;;;;;;;8.43;96.51;100262.47;5078156;28;20025;-81
2023/12/10 06:11:45;;;;;;;24.95;5.50;;;;;;;8.41;96.29;100280.94;5068783;28;20061;-81
2023/12/10 06:14:10;;;;;;;25.13;5.43;;;;;;;8.44;95.25;100282.50;5064098;28;20031;-80
2023/12/10 06:16:36;;;;;;;22.15;4.78;;;;;;;8.44;94.47;100283.34;5070434;28;20115;-81
2023/12/10 06:19:01;;;;;;;25.25;5.35;;;;;;;8.44;94.93;100283.34;5064120;28;20020;-80
2023/12/10 06:21:27;;;;;;;27.05;5.93;;;;;;;8.42;95.95;100289.66;5065060;28;20448;-80
2023/12/10 06:23:52;;;;;;;23.80;5.00;;;;;;;8.40;95.84;100296.75;5066530;28;20430;-80
2023/12/10 06:26:18;;;;;;;27.98;6.10;;;;;;;8.39;95.89;100306.41;5067516;28;20388;-80
2023/12/10 06:28:44;;;;;;;22.30;5.63;;;;;;;8.42;95.40;100321.09;5068761;28;20479;-81
2023/12/10 06:31:09;;;;;;;30.27;5.82;;;;;;;8.41;95.78;100324.66;5052952;28;20049;-81
2023/12/10 06:33:35;;;;;;;23.55;5.30;;;;;;;8.41;95.17;100322.88;5063912;28;20150;-82
2023/12/10 06:36:00;;;;;;;24.25;6.15;;;;;;;8.41;97.14;100351.72;5066950;28;20028;-81
2023/12/10 06:38:25;;;;;;;24.20;5.18;;;;;;;8.41;96.30;100335.16;5068968;28;20028;-81
2023/12/10 06:40:51;;;;;;;23.73;5.20;;;;;;;8.40;95.72;100326.44;5055363;28;20032;-82
2023/12/10 06:43:17;;;;;;;24.55;5.47;;;;;;;8.39;96.09;100355.38;5066096;28;20103;-82
2023/12/10 06:45:42;;;;;;;26.10;5.57;;;;;;;8.38;97.70;100335.34;5066766;28;20024;-82
2023/12/10 06:48:07;;;;;;;25.73;5.72;;;;;;;8.37;97.04;100345.00;5060685;28;20544;-80
2023/12/10 06:50:33;;;;;;;28.42;5.85;;;;;;;8.37;97.25;100344.16;5059237;28;20034;-81
2023/12/10 06:52:58;;;;;;;23.33;5.57;;;;;;;8.38;96.97;100358.94;5060711;28;20112;-81
2023/12/10 06:55:24;;;;;;;28.10;5.53;;;;;;;8.37;97.06;100371.22;5063313;28;20036;-81
2023/12/10 06:57:49;;;;;;;26.48;5.78;;;;;;;8.37;96.19;100388.72;5063998;28;20476;-82
2023/12/10 07:00:19;;;;;;;22.67;5.00;;;;;;;8.38;95.85;100393.84;5067874;28;20082;-80
2023/12/10 07:02:45;;;;;;;21.80;5.63;;;;;;;8.37;96.30;100393.97;5068155;28;20063;-80
2023/12/10 07:05:10;;;;;;;24.02;5.50;;;;;;;8.35;97.00;100393.25;5063076;28;20384;-83
2023/12/10 07:07:36;;;;;;;21.52;5.05;;;;;;;8.37;95.48;100401.84;5069147;28;20058;-82
2023/12/10 07:10:01;;;;;;;26.80;5.75;;;;;;;8.39;95.53;100395.53;5069636;28;20028;-82
2023/12/10 07:12:26;;;;;;;22.42;5.65;;;;;;;8.35;97.15;100408.97;5069898;28;20024;-82
2023/12/10 07:14:52;;;;;;;21.48;5.03;;;;;;;8.35;96.20;100395.88;5064129;28;20024;-81
2023/12/10 07:17:17;;;;;;;27.77;5.50;;;;;;;8.38;94.33;100396.47;5058397;28;20540;-82
2023/12/10 07:19:43;;;;;;;24.33;5.47;;;;;;;8.39;95.43;100411.25;5064995;28;20115;-81
2023/12/10 07:22:08;;;;;;;24.27;5.18;;;;;;;8.38;95.00;100403.50;5067409;28;20586;-82
2023/12/10 07:24:33;;;;;;;28.38;5.30;;;;;;;8.39;94.28;100415.66;5067453;28;20032;-82
2023/12/10 07:26:59;;;;;;;22.90;5.03;;;;;;;8.37;94.81;100436.75;5085388;28;20032;-80
2023/12/10 07:29:26;;;;;;;24.65;5.65;;;;;;;8.39;94.53;100432.22;5067550;28;20066;-82
2023/12/10 07:31:51;;;;;;;22.50;4.95;;;;;;;8.34;95.94;100449.25;5066095;28;20124;-81
2023/12/10 07:34:16;;;;;;;25.88;5.43;;;;;;;8.34;95.69;100447.44;5053975;28;20565;-82
2023/12/10 07:36:42;;;;;;;23.65;5.47;;;;;;;8.34;95.66;100449.25;5060800;28;20063;-81
2023/12/10 07:39:09;;;;;;;20.73;5.32;;;;;;;8.32;96.02;100456.34;5069260;28;20020;-81
2023/12/10 07:41:35;;;;;;;26.58;5.50;;;;;;;8.31;96.59;100458.13;5068334;28;20524;-80
2023/12/10 07:44:00;;;;;;;26.23;6.20;;;;;;;8.27;96.95;100472.41;5068071;28;20104;-81
2023/12/10 07:46:25;;;;;;;25.10;5.63;;;;;;;8.31;96.36;100473.00;5066032;28;20039;-81
2023/12/10 07:48:51;;;;;;;25.33;5.78;;;;;;;8.29;97.63;100482.78;5055225;28;20025;-81
2023/12/10 07:51:16;;;;;;;28.15;5.80;;;;;;;8.28;98.11;100478.47;5067729;28;20032;-81
2023/12/10 07:53:42;;;;;;;23.25;6.13;;;;;;;8.27;97.96;100487.28;5061446;28;20024;-81
2023/12/10 07:56:09;;;;;;;26.17;5.35;;;;;;;8.26;98.85;100480.38;5066718;28;20468;-81
2023/12/10 07:58:34;;;;;;;30.23;5.60;;;;;;;8.26;99.54;100499.56;5066334;28;20036;-81
2023/12/10 08:01:00;;;;;;;23.67;5.60;;;;;;;8.24;100.00;100495.38;5064649;28;20020;-80
2023/12/10 08:03:26;;;;;;;24.73;5.72;;;;;;;8.25;100.00;100502.28;5066155;28;20028;-80
2023/12/10 08:05:51;;;;;;;25.52;5.75;;;;;;;8.25;100.00;100503.13;5066969;28;20031;-80
2023/12/10 08:08:16;;;;;;;25.27;5.53;;;;;;;8.24;100.00;100493.56;5066968;28;20414;-80
2023/12/10 08:10:42;;;;;;;19.92;5.07;;;;;;;8.25;100.00;100481.31;5068737;28;20016;-81
2023/12/10 08:13:08;;;;;;;23.98;5.63;;;;;;;8.24;100.00;100495.38;5068310;28;20020;-81
2023/12/10 08:15:33;;;;;;;23.95;5.82;;;;;;;8.23;100.00;100512.88;5067417;28;20060;-80
2023/12/10 08:17:59;;;;;;;28.80;6.03;;;;;;;8.24;100.00;100497.97;5069777;28;20548;-80
2023/12/10 08:20:24;;;;;;;27.13;5.60;;;;;;;8.24;100.00;100509.31;5068931;28;20031;-80
2023/12/10 08:22:50;;;;;;;29.38;5.93;;;;;;;8.26;100.00;100511.81;5069614;28;20021;-81
2023/12/10 08:25:16;;;;;;;32.33;5.78;;;;;;;8.28;100.00;100523.88;5067277;28;20027;-80
2023/12/10 08:27:42;;;;;;;24.30;6.35;;;;;;;8.26;100.00;100535.41;5068407;28;20025;-81
2023/12/10 08:30:08;;;;;;;24.67;5.63;;;;;;;8.27;100.00;100537.91;5069277;28;20059;-80
2023/12/10 08:32:33;;;;;;;21.05;5.57;;;;;;;8.29;100.00;100545.66;5067551;28;20557;-80
2023/12/10 08:34:59;;;;;;;29.02;5.65;;;;;;;8.27;100.00;100535.28;5067819;28;20115;-80
2023/12/10 08:37:24;;;;;;;28.30;6.00;;;;;;;8.28;100.00;100544.00;5068114;28;20029;-81
2023/12/10 08:39:49;;;;;;;27.25;5.93;;;;;;;8.29;100.00;100566.63;5068830;28;20025;-81
2023/12/10 08:42:18;;;;;;;24.33;6.07;;;;;;;8.29;100.00;100562.25;5068435;28;20107;-81
2023/12/10 08:44:43;;;;;;;27.40;5.60;;;;;;;8.30;100.00;100563.06;5068713;28;20142;-81
2023/12/10 08:47:09;;;;;;;29.13;6.32;;;;;;;8.30;100.00;100560.47;5069743;28;20119;-81
2023/12/10 08:49:34;;;;;;;25.13;5.85;;;;;;;8.29;100.00;100561.41;5071079;28;20028;-81
2023/12/10 08:52:00;;;;;;;28.88;5.93;;;;;;;8.29;100.00;100569.25;5071166;28;20020;-81
2023/12/10 08:54:25;;;;;;;33.05;5.68;;;;;;;8.27;100.00;100563.28;5070493;28;20031;-81
2023/12/10 08:56:50;;;;;;;25.80;6.13;;;;;;;8.27;100.00;100569.38;5072291;28;20074;-81
2023/12/10 08:59:16;;;;;;;26.55;5.18;;;;;;;8.27;100.00;100576.41;5064254;28;20029;-80
2023/12/10 09:01:41;;;;;;;29.95;6.40;;;;;;;8.26;100.00;100570.31;5064220;28;20039;-81
2023/12/10 09:04:08;;;;;;;27.08;5.88;;;;;;;8.27;100.00;100579.00;5069925;28;20063;-81
2023/12/10 09:06:33;;;;;;;25.60;6.20;;;;;;;8.27;100.00;100576.41;5056632;28;20085;-81
2023/12/10 09:08:58;;;;;;;30.20;5.93;;;;;;;8.25;100.00;100579.13;5069011;28;20488;-81
2023/12/10 09:11:24;;;;;;;24.98;5.93;;;;;;;8.26;100.00;100586.03;5071690;28;20426;-82
2023/12/10 09:13:49;;;;;;;28.95;5.78;;;;;;;8.26;100.00;100572.09;5079158;28;20060;-80
2023/12/10 09:16:19;;;;;;;27.75;5.78;;;;;;;8.29;100.00;100579.75;5060211;28;20115;-81
2023/12/10 09:18:44;;;;;;;26.27;6.07;;;;;;;8.30;100.00;100584.03;5065314;28;20040;-82
2023/12/10 09:21:09;;;;;;;30.02;5.72;;;;;;;8.32;100.00;100595.25;5070198;28;20499;-81
2023/12/10 09:23:35;;;;;;;25.27;5.60;;;;;;;8.33;100.00;100596.94;5071335;28;20067;-81
2023/12/10 09:26:01;;;;;;;25.13;5.18;;;;;;;8.34;100.00;100591.63;5070702;28;20032;-81
2023/12/10 09:28:27;;;;;;;23.50;5.85;;;;;;;8.39;100.00;100593.91;5071471;28;20099;-81
2023/12/10 09:30:52;;;;;;;25.42;5.55;;;;;;;8.43;100.00;100591.00;5069512;28;20605;-81
2023/12/10 09:33:17;;;;;;;25.70;5.88;;;;;;;8.46;100.00;100590.78;5070170;28;20028;-81
2023/12/10 09:35:43;;;;;;;30.02;6.13;;;;;;;8.50;100.00;100599.28;5070618;28;20029;-81
2023/12/10 09:38:08;;;;;;;29.88;5.82;;;;;;;8.51;100.00;100598.34;5070104;28;20361;-81
2023/12/10 09:40:34;;;;;;;29.67;6.18;;;;;;;8.55;100.00;100597.19;5069787;28;20040;-81
2023/12/10 09:43:01;;;;;;;26.17;5.45;;;;;;;8.55;100.00;100599.81;5069947;28;20532;-80
2023/12/10 09:45:28;;;;;;;23.23;5.38;;;;;;;8.56;100.00;100596.25;5070436;28;20032;-82
2023/12/10 09:47:53;;;;;;;28.45;6.05;;;;;;;8.57;100.00;100597.06;5069515;28;20024;-81
2023/12/10 09:50:20;;;;;;;23.70;5.30;;;;;;;8.55;100.00;100594.56;5068820;28;20054;-80
2023/12/10 09:52:46;;;;;;;25.45;6.07;;;;;;;8.55;100.00;100602.44;5069547;28;20020;-80
2023/12/10 09:55:12;;;;;;;25.02;5.55;;;;;;;8.56;100.00;100601.47;5069470;28;20497;-80
2023/12/10 09:57:38;;;;;;;26.25;6.05;;;;;;;8.57;100.00;100603.16;5067684;28;20032;-82
2023/12/10 10:00:06;;;;;;;29.25;6.22;;;;;;;8.60;100.00;100602.09;5069884;28;20651;-82
2023/12/10 10:02:32;;;;;;;29.98;6.68;;;;;;;8.70;100.00;100600.50;5069937;28;20533;-82
2023/12/10 10:05:03;;;;;;;26.45;6.53;;;;;;;8.75;100.00;100609.72;5066609;28;20031;-83
2023/12/10 10:07:32;;;;;;;28.20;5.75;;;;;;;8.78;100.00;100596.41;5068445;28;20039;-82
2023/12/10 10:10:00;;;;;;;28.92;6.43;;;;;;;8.79;100.00;100602.47;5069098;28;20025;-82
2023/12/10 10:12:29;;;;;;;29.33;5.57;;;;;;;8.82;100.00;100598.81;5069078;28;20019;-82
2023/12/10 10:14:56;;;;;;;27.27;5.70;;;;;;;8.83;100.00;100595.25;5069537;28;20040;-82
2023/12/10 10:17:29;;;;;;;26.83;6.38;;;;;;;8.85;100.00;100590.75;5066734;28;20039;-82
2023/12/10 10:19:55;;;;;;;24.60;5.70;;;;;;;8.86;100.00;100584.53;5068435;28;20531;-82
2023/12/10 10:22:22;;;;;;;27.20;5.32;;;;;;;8.86;100.00;100572.25;5066290;28;20107;-82
2023/12/10 10:24:48;;;;;;;27.13;6.30;;;;;;;8.88;100.00;100577.41;5066079;28;20056;-84
2023/12/10 10:27:13;;;;;;;21.60;5.68;;;;;;;8.90;100.00;100568.47;5067591;28;20502;-83
2023/12/10 10:29:40;;;;;;;25.08;6.03;;;;;;;8.93;100.00;100575.28;5065945;28;20068;-82
2023/12/10 10:32:08;;;;;;;25.50;5.50;;;;;;;8.96;100.00;100577.69;5068667;28;20024;-82
2023/12/10 10:34:34;;;;;;;26.63;5.47;;;;;;;9.00;100.00;100582.59;5069431;28;20043;-81
2023/12/10 10:36:59;;;;;;;22.67;5.13;;;;;;;9.05;100.00;100582.28;5056516;28;20082;-82
2023/12/10 10:39:26;;;;;;;23.00;5.47;;;;;;;9.13;100.00;100594.84;5058117;28;20032;-81
2023/12/10 10:41:51;;;;;;;26.88;5.80;;;;;;;9.18;100.00;100597.97;5070620;28;20025;-82
2023/12/10 10:44:17;;;;;;;25.27;6.15;;;;;;;9.24;100.00;100595.75;5070605;28;20039;-81
2023/12/10 10:46:42;;;;;;;23.67;5.80;;;;;;;9.32;100.00;100597.81;5069039;28;20054;-82
2023/12/10 10:49:08;;;;;;;26.55;5.78;;;;;;;9.36;100.00;100592.25;5068391;28;20056;-82
2023/12/10 10:51:34;;;;;;;24.17;5.53;;;;;;;9.40;100.00;100598.09;5068783;28;20024;-82
2023/12/10 10:54:03;;;;;;;23.52;4.65;;;;;;;9.44;100.00;100599.53;5065299;28;20036;-82
2023/12/10 10:56:29;;;;;;;25.80;5.90;;;;;;;9.54;100.00;100589.19;5069846;28;20017;-83
2023/12/10 10:58:54;;;;;;;28.73;5.93;;;;;;;9.58;100.00;100580.13;5069099;28;20070;-82
2023/12/10 11:01:37;;;;;;;20.48;4.82;;;;;;;9.62;100.00;100579.00;5067634;28;20030;-82
2023/12/10 11:04:03;;;;;;;18.35;4.72;;;;;;;9.65;100.00;100582.22;5067633;28;20527;-83
2023/12/10 11:06:28;;;;;;;22.88;5.75;;;;;;;9.67;100.00;100579.47;5066486;28;20032;-82
2023/12/10 11:08:59;;;;;;;26.33;5.57;;;;;;;9.63;100.00;100584.13;5067289;28;20078;-83
2023/12/10 11:11:26;;;;;;;22.10;4.88;;;;;;;9.56;100.00;100590.75;5067504;28;20024;-83
2023/12/10 11:13:53;;;;;;;23.25;5.32;;;;;;;9.54;100.00;100573.44;5068513;28;20025;-82
2023/12/10 11:16:19;;;;;;;24.33;5.30;;;;;;;9.50;100.00;100574.63;5067220;28;20028;-83